Time;durP1;ratioP1;P1;durP2;ratioP2;P2;SDS_P1;SDS_P2;PMS_P1;PMS_P2;Temp;Humidity;BMP_temperature;BMP_pressure;BME280_temperature;BME280_humidity;BME280_pressure;Samples;Min_cycle;Max_cycle;Signal;HPM_P1;HPM_P2
2024/02/14 00:00:06;;;;;;;17.43;15.93;;;2.90;99.90;;;;;;5037396;28;20236;-76
2024/02/14 00:02:33;;;;;;;18.20;16.70;;;2.90;99.90;;;;;;5055276;28;20200;-77
2024/02/14 00:05:00;;;;;;;17.87;16.23;;;2.90;99.90;;;;;;5055778;28;20282;-76
2024/02/14 00:07:27;;;;;;;18.23;16.67;;;3.00;99.90;;;;;;5038522;28;20474;-76
2024/02/14 00:09:54;;;;;;;18.13;16.43;;;3.00;99.90;;;;;;5056593;28;20203;-77
2024/02/14 00:12:21;;;;;;;17.97;16.53;;;3.00;99.90;;;;;;5046462;28;20513;-76
2024/02/14 00:14:48;;;;;;;17.50;15.83;;;3.00;99.90;;;;;;5037507;28;20192;-77
2024/02/14 00:17:16;;;;;;;17.23;15.73;;;3.00;99.90;;;;;;5055939;28;20299;-77
2024/02/14 00:19:43;;;;;;;17.30;15.67;;;3.00;99.90;;;;;;5054942;28;20195;-76
2024/02/14 00:22:10;;;;;;;17.67;16.13;;;3.00;99.90;;;;;;5045136;28;20668;-76
2024/02/14 00:24:37;;;;;;;18.00;16.40;;;3.10;99.90;;;;;;5055295;28;20615;-77
2024/02/14 00:27:04;;;;;;;18.60;16.77;;;3.00;99.90;;;;;;5040696;28;20313;-77
2024/02/14 00:29:33;;;;;;;16.83;15.40;;;3.10;99.90;;;;;;5037105;28;20203;-76
2024/02/14 00:32:00;;;;;;;17.40;16.03;;;3.10;99.90;;;;;;5062239;28;20195;-76
2024/02/14 00:34:28;;;;;;;16.37;15.03;;;3.10;99.90;;;;;;5069986;28;20199;-76
2024/02/14 00:36:55;;;;;;;16.47;15.23;;;3.10;99.90;;;;;;5046107;28;20219;-77
2024/02/14 00:39:29;;;;;;;16.63;15.20;;;3.10;99.90;;;;;;5037139;28;20636;-77
2024/02/14 00:41:56;;;;;;;17.97;16.20;;;3.10;99.90;;;;;;5055079;28;20194;-77
2024/02/14 00:44:23;;;;;;;18.00;16.50;;;3.10;99.90;;;;;;5036805;28;20621;-76
2024/02/14 00:46:50;;;;;;;18.07;16.37;;;3.00;99.90;;;;;;5062288;28;20222;-76
2024/02/14 00:49:17;;;;;;;17.73;16.23;;;3.00;99.90;;;;;;5054984;28;20696;-76
2024/02/14 00:51:45;;;;;;;17.17;15.67;;;3.10;99.90;;;;;;5036404;28;20627;-77
2024/02/14 00:54:12;;;;;;;17.73;16.23;;;3.10;99.90;;;;;;5057300;28;20195;-77
2024/02/14 00:56:40;;;;;;;17.00;15.50;;;3.10;99.90;;;;;;5036955;28;20225;-76
2024/02/14 00:59:07;;;;;;;17.87;16.17;;;3.20;99.90;;;;;;5036738;28;20578;-76
2024/02/14 01:01:34;;;;;;;16.53;15.13;;;3.20;99.90;;;;;;5036838;28;20210;-77
2024/02/14 01:04:01;;;;;;;17.47;16.00;;;3.30;99.90;;;;;;5056869;28;20243;-76
2024/02/14 01:06:27;;;;;;;16.57;15.37;;;3.40;99.90;;;;;;5036416;28;20220;-76
2024/02/14 01:08:56;;;;;;;17.40;15.67;;;3.40;99.90;;;;;;5054623;28;20200;-77
2024/02/14 01:11:22;;;;;;;17.03;15.53;;;3.40;99.90;;;;;;5057539;28;20257;-76
2024/02/14 01:13:49;;;;;;;17.07;15.63;;;3.50;99.90;;;;;;5041252;28;20227;-76
2024/02/14 01:16:16;;;;;;;16.50;15.20;;;3.50;99.90;;;;;;5036934;28;20223;-78
2024/02/14 01:18:43;;;;;;;17.00;15.70;;;3.60;99.90;;;;;;5044147;28;20203;-77
2024/02/14 01:21:09;;;;;;;18.03;16.37;;;3.70;99.90;;;;;;5043125;28;20684;-76
2024/02/14 01:23:36;;;;;;;17.87;16.40;;;3.70;99.90;;;;;;5054727;28;20199;-77
2024/02/14 01:26:05;;;;;;;17.07;15.57;;;3.80;99.90;;;;;;5054158;28;20238;-76
2024/02/14 01:28:31;;;;;;;17.60;16.20;;;3.80;99.90;;;;;;5054292;28;20229;-77
2024/02/14 01:30:58;;;;;;;17.87;16.13;;;3.80;99.90;;;;;;5055829;28;20196;-77
2024/02/14 01:33:25;;;;;;;15.87;14.73;;;3.90;99.90;;;;;;5040393;28;20200;-77
2024/02/14 01:35:52;;;;;;;16.37;14.97;;;3.90;99.90;;;;;;5054785;28;20198;-77
2024/02/14 01:38:18;;;;;;;16.37;15.10;;;3.90;99.90;;;;;;5030878;28;20215;-77
2024/02/14 01:40:46;;;;;;;16.37;15.07;;;3.90;99.90;;;;;;5055445;28;20675;-76
2024/02/14 01:43:15;;;;;;;17.00;15.60;;;3.90;99.90;;;;;;5054416;28;20218;-77
2024/02/14 01:45:42;;;;;;;17.40;15.90;;;3.90;99.90;;;;;;5036324;28;20290;-77
2024/02/14 01:48:09;;;;;;;17.33;15.93;;;3.90;99.90;;;;;;5044279;28;20241;-76
2024/02/14 01:50:36;;;;;;;17.30;15.80;;;3.90;99.90;;;;;;5053942;28;20636;-76
2024/02/14 01:53:04;;;;;;;17.40;16.10;;;3.90;99.90;;;;;;5055248;28;20195;-77
2024/02/14 01:55:32;;;;;;;17.33;15.87;;;3.90;99.90;;;;;;5057415;28;20661;-76
2024/02/14 01:57:59;;;;;;;16.80;15.60;;;3.80;99.90;;;;;;5054239;28;20207;-77
2024/02/14 02:00:27;;;;;;;17.70;16.30;;;3.80;99.90;;;;;;5036463;28;20250;-77
2024/02/14 02:02:57;;;;;;;17.97;16.43;;;3.80;99.90;;;;;;5032650;28;20203;-76
2024/02/14 02:05:24;;;;;;;17.30;15.90;;;3.80;99.90;;;;;;5036412;28;20243;-76
2024/02/14 02:07:51;;;;;;;17.77;16.37;;;3.80;99.90;;;;;;5053756;28;20215;-76
2024/02/14 02:10:17;;;;;;;17.60;16.30;;;3.80;99.90;;;;;;5038788;28;20195;-77
2024/02/14 02:12:44;;;;;;;17.20;15.80;;;3.90;99.90;;;;;;5053938;28;20256;-75
2024/02/14 02:15:13;;;;;;;16.40;15.20;;;3.90;99.90;;;;;;5053671;28;20641;-77
2024/02/14 02:17:41;;;;;;;17.93;16.43;;;3.90;99.90;;;;;;5063702;28;20222;-77
2024/02/14 02:20:09;;;;;;;17.27;16.07;;;3.90;99.90;;;;;;5046216;28;20265;-76
2024/02/14 02:22:36;;;;;;;17.53;16.00;;;4.00;99.90;;;;;;5035465;28;20242;-77
2024/02/14 02:25:07;;;;;;;17.30;15.93;;;3.90;99.90;;;;;;5061942;28;20674;-77
2024/02/14 02:27:37;;;;;;;16.93;15.73;;;4.00;99.90;;;;;;5053254;28;20214;-77
2024/02/14 02:30:05;;;;;;;18.43;16.83;;;4.00;99.90;;;;;;5037636;28;20560;-77
2024/02/14 02:32:32;;;;;;;18.20;16.70;;;4.00;99.90;;;;;;5039365;28;20208;-76
2024/02/14 02:34:59;;;;;;;16.90;15.57;;;4.00;99.90;;;;;;5060024;28;20247;-76
2024/02/14 02:37:29;;;;;;;17.23;16.03;;;4.00;99.90;;;;;;5069028;28;20206;-76
2024/02/14 02:39:56;;;;;;;17.30;16.00;;;4.10;99.90;;;;;;5065594;28;20186;-76
2024/02/14 02:42:24;;;;;;;17.47;15.90;;;4.10;99.90;;;;;;5042837;28;20201;-76
2024/02/14 02:44:51;;;;;;;17.37;16.13;;;4.10;99.90;;;;;;5058824;28;20189;-77
2024/02/14 02:47:18;;;;;;;16.80;15.60;;;4.10;99.90;;;;;;5057180;28;20314;-76
2024/02/14 02:49:45;;;;;;;18.07;16.47;;;4.10;99.90;;;;;;5040850;28;20199;-76
2024/02/14 02:52:12;;;;;;;18.60;16.90;;;4.00;99.90;;;;;;5041276;28;20232;-76
2024/02/14 02:54:40;;;;;;;17.97;16.47;;;4.00;99.90;;;;;;5060832;28;20244;-77
2024/02/14 02:57:08;;;;;;;18.03;16.60;;;4.00;99.90;;;;;;5041719;28;20215;-77
2024/02/14 02:59:37;;;;;;;18.93;17.33;;;4.10;99.90;;;;;;5045049;28;20225;-77
2024/02/14 03:02:08;;;;;;;18.83;17.13;;;4.10;99.90;;;;;;5038751;28;20191;-76
2024/02/14 03:04:35;;;;;;;18.73;17.23;;;4.10;99.90;;;;;;5042267;28;20290;-77
2024/02/14 03:07:04;;;;;;;18.13;16.77;;;4.10;99.90;;;;;;5038286;28;20603;-76
2024/02/14 03:09:31;;;;;;;17.70;16.30;;;4.10;99.90;;;;;;5059002;28;20194;-76
2024/02/14 03:11:57;;;;;;;17.67;16.10;;;4.10;99.90;;;;;;5056315;28;20278;-76
2024/02/14 03:14:24;;;;;;;18.13;16.73;;;4.10;99.90;;;;;;5040619;28;20203;-77
2024/02/14 03:16:53;;;;;;;17.80;16.50;;;4.20;99.90;;;;;;5039363;28;20705;-77
2024/02/14 03:19:22;;;;;;;16.53;15.33;;;4.20;99.90;;;;;;5049373;28;20229;-77
2024/02/14 03:21:48;;;;;;;17.10;15.90;;;4.20;99.90;;;;;;5066865;28;20192;-76
2024/02/14 03:24:15;;;;;;;17.27;15.97;;;4.20;99.90;;;;;;5065764;28;20203;-76
2024/02/14 03:26:42;;;;;;;18.70;17.30;;;4.20;99.90;;;;;;5059872;28;20282;-76
2024/02/14 03:29:09;;;;;;;18.43;17.10;;;4.20;99.90;;;;;;5046733;28;20274;-77
2024/02/14 03:31:35;;;;;;;18.57;17.17;;;4.20;99.90;;;;;;5040092;28;20195;-77
2024/02/14 03:34:04;;;;;;;18.40;17.00;;;4.20;99.90;;;;;;5038125;28;20218;-77
2024/02/14 03:36:32;;;;;;;17.33;15.87;;;4.20;99.90;;;;;;5050290;28;20301;-77
2024/02/14 03:38:59;;;;;;;17.20;15.90;;;4.10;99.90;;;;;;5050977;28;20596;-77
2024/02/14 03:41:27;;;;;;;18.00;16.60;;;4.10;99.90;;;;;;5036829;28;20286;-79
2024/02/14 03:43:58;;;;;;;18.43;17.13;;;4.10;99.90;;;;;;5040157;28;20196;-76
2024/02/14 03:46:24;;;;;;;18.27;16.60;;;4.10;99.90;;;;;;5066266;28;20230;-77
2024/02/14 03:48:51;;;;;;;18.17;16.77;;;4.00;99.90;;;;;;5036639;28;20215;-76
2024/02/14 03:51:20;;;;;;;18.63;17.03;;;4.00;99.90;;;;;;5063565;28;20197;-78
2024/02/14 03:53:47;;;;;;;18.97;17.57;;;4.00;99.90;;;;;;5048029;28;20249;-77
2024/02/14 03:56:16;;;;;;;18.47;17.07;;;4.00;99.90;;;;;;5051787;28;20227;-77
2024/02/14 03:58:43;;;;;;;18.93;17.43;;;4.00;99.90;;;;;;5027824;28;20192;-78
2024/02/14 04:01:10;;;;;;;18.87;17.30;;;3.90;99.90;;;;;;5041849;28;20191;-78
2024/02/14 04:03:37;;;;;;;18.80;17.27;;;4.00;99.90;;;;;;5054442;28;20242;-78
2024/02/14 04:06:04;;;;;;;18.63;17.23;;;4.00;99.90;;;;;;5040611;28;20230;-78
2024/02/14 04:08:33;;;;;;;19.10;17.60;;;4.00;99.90;;;;;;5037590;28;20254;-78
2024/02/14 04:11:00;;;;;;;19.33;17.80;;;4.00;99.90;;;;;;5058156;28;20205;-77
2024/02/14 04:13:29;;;;;;;18.97;17.47;;;4.00;99.90;;;;;;5039472;28;20207;-79
2024/02/14 04:15:56;;;;;;;19.53;17.93;;;4.00;99.90;;;;;;5057626;28;20655;-76
2024/02/14 04:18:23;;;;;;;18.07;16.77;;;4.00;99.90;;;;;;5052778;28;20195;-77
2024/02/14 04:20:50;;;;;;;18.30;16.90;;;4.00;99.90;;;;;;5051132;28;20223;-77
2024/02/14 04:23:17;;;;;;;17.77;16.30;;;4.10;99.90;;;;;;5053635;28;20210;-76
2024/02/14 04:25:45;;;;;;;19.23;17.63;;;4.10;99.90;;;;;;5053381;28;20649;-77
2024/02/14 04:28:12;;;;;;;18.67;17.13;;;4.10;99.90;;;;;;5052630;28;20229;-77
2024/02/14 04:30:39;;;;;;;18.93;17.07;;;4.10;99.90;;;;;;5035122;28;20199;-77
2024/02/14 04:33:07;;;;;;;19.60;17.93;;;4.10;99.90;;;;;;5053159;28;20670;-76
2024/02/14 04:35:34;;;;;;;18.30;16.70;;;4.10;99.90;;;;;;5052615;28;20207;-76
2024/02/14 04:38:02;;;;;;;18.13;16.73;;;4.10;99.90;;;;;;5054650;28;20625;-77
2024/02/14 04:40:29;;;;;;;17.93;16.50;;;4.10;99.90;;;;;;5036116;28;20639;-76
2024/02/14 04:42:57;;;;;;;18.47;16.97;;;4.00;99.90;;;;;;5056055;28;20199;-76
2024/02/14 04:45:24;;;;;;;19.07;17.53;;;4.00;99.90;;;;;;5053113;28;20413;-77
2024/02/14 04:47:51;;;;;;;17.33;16.10;;;3.90;99.90;;;;;;5052944;28;20695;-77
2024/02/14 04:50:18;;;;;;;17.23;15.93;;;3.90;99.90;;;;;;5043090;28;20207;-79
2024/02/14 04:52:45;;;;;;;18.37;16.97;;;3.80;99.90;;;;;;5033670;28;20655;-76
2024/02/14 04:55:12;;;;;;;18.07;16.67;;;3.80;99.90;;;;;;5033574;28;20207;-76
2024/02/14 04:57:39;;;;;;;17.37;16.10;;;3.70;99.90;;;;;;5051214;28;20219;-76
2024/02/14 05:00:09;;;;;;;17.47;16.27;;;3.80;99.90;;;;;;5051382;28;20625;-76
2024/02/14 05:02:37;;;;;;;17.10;15.80;;;3.70;99.90;;;;;;5033445;28;20195;-76
2024/02/14 05:05:04;;;;;;;18.67;17.10;;;3.70;99.90;;;;;;5051051;28;20201;-76
2024/02/14 05:07:30;;;;;;;19.10;17.30;;;3.70;99.90;;;;;;5032727;28;20644;-76
2024/02/14 05:09:57;;;;;;;18.37;16.80;;;3.70;99.90;;;;;;5056899;28;20605;-76
2024/02/14 05:12:25;;;;;;;18.23;16.93;;;3.80;99.90;;;;;;5050412;28;20567;-76
2024/02/14 05:14:51;;;;;;;18.47;17.07;;;3.80;99.90;;;;;;5051640;28;20195;-76
2024/02/14 05:17:19;;;;;;;18.07;16.57;;;3.80;99.90;;;;;;5050930;28;20219;-76
2024/02/14 05:19:46;;;;;;;17.97;16.47;;;3.80;99.90;;;;;;5032534;28;20199;-76
2024/02/14 05:22:13;;;;;;;17.33;16.20;;;3.80;99.90;;;;;;5051075;28;20293;-76
2024/02/14 05:24:40;;;;;;;17.77;16.47;;;3.80;99.90;;;;;;5033371;28;20286;-75
2024/02/14 05:27:07;;;;;;;17.80;16.40;;;3.90;99.90;;;;;;5032950;28;20215;-76
2024/02/14 05:29:34;;;;;;;17.73;16.23;;;3.90;99.90;;;;;;5053601;28;20570;-76
2024/02/14 05:32:00;;;;;;;17.80;16.40;;;3.90;99.90;;;;;;5050811;28;20221;-76
2024/02/14 05:34:28;;;;;;;16.93;15.70;;;4.00;99.90;;;;;;5032639;28;20203;-75
2024/02/14 05:36:56;;;;;;;17.93;16.73;;;4.00;99.90;;;;;;5051008;28;20264;-76
2024/02/14 05:39:22;;;;;;;18.23;16.77;;;4.00;99.90;;;;;;5050749;28;20199;-76
2024/02/14 05:41:49;;;;;;;17.87;16.37;;;4.00;99.90;;;;;;5051060;28;20260;-76
2024/02/14 05:44:16;;;;;;;19.27;17.77;;;4.10;99.90;;;;;;5050541;28;20749;-76
2024/02/14 05:46:43;;;;;;;19.87;18.27;;;4.00;99.90;;;;;;5050708;28;20292;-76
2024/02/14 05:49:10;;;;;;;20.03;18.40;;;4.10;99.90;;;;;;5050461;28;20219;-76
2024/02/14 05:51:38;;;;;;;20.33;18.57;;;4.10;99.90;;;;;;5050483;28;20191;-76
2024/02/14 05:54:05;;;;;;;20.03;18.40;;;4.20;99.90;;;;;;5032942;28;20200;-76
2024/02/14 05:56:32;;;;;;;20.43;18.73;;;4.30;99.90;;;;;;5039224;28;20227;-75
2024/02/14 05:58:59;;;;;;;19.97;18.20;;;4.30;99.90;;;;;;5050281;28;20221;-76
2024/02/14 06:01:26;;;;;;;19.53;17.87;;;4.40;99.90;;;;;;5050674;28;20200;-76
2024/02/14 06:03:52;;;;;;;18.37;16.87;;;4.40;99.90;;;;;;5050735;28;20471;-76
2024/02/14 06:06:19;;;;;;;17.57;16.17;;;4.40;99.90;;;;;;5054473;28;20250;-76
2024/02/14 06:08:47;;;;;;;17.50;16.10;;;4.30;99.90;;;;;;5054014;28;20222;-76
2024/02/14 06:11:16;;;;;;;18.60;17.10;;;4.30;99.90;;;;;;5058033;28;20223;-76
2024/02/14 06:13:42;;;;;;;18.37;16.83;;;4.20;99.90;;;;;;5036563;28;20559;-76
2024/02/14 06:16:11;;;;;;;18.90;17.23;;;4.20;99.90;;;;;;5036499;28;20281;-76
2024/02/14 06:18:39;;;;;;;20.47;18.77;;;4.10;99.90;;;;;;5054099;28;20195;-76
2024/02/14 06:21:06;;;;;;;18.30;16.97;;;4.10;99.90;;;;;;5054118;28;20611;-76
2024/02/14 06:23:32;;;;;;;17.67;16.47;;;4.10;99.90;;;;;;5036171;28;20202;-76
2024/02/14 06:26:00;;;;;;;18.40;17.10;;;4.10;99.90;;;;;;5054040;28;20253;-76
2024/02/14 06:28:27;;;;;;;19.43;17.93;;;4.10;99.90;;;;;;5054843;28;20708;-76
2024/02/14 06:30:54;;;;;;;18.17;16.80;;;4.10;99.90;;;;;;5060565;28;20272;-76
2024/02/14 06:33:21;;;;;;;18.17;16.73;;;4.20;99.90;;;;;;5053804;28;20678;-76
2024/02/14 06:35:48;;;;;;;18.00;16.80;;;4.20;99.90;;;;;;5057798;28;20665;-76
2024/02/14 06:38:15;;;;;;;18.23;16.80;;;4.20;99.90;;;;;;5055964;28;20662;-76
2024/02/14 06:40:43;;;;;;;18.20;16.70;;;4.30;99.90;;;;;;5035893;28;20200;-76
2024/02/14 06:43:12;;;;;;;17.93;16.53;;;4.40;99.90;;;;;;5040423;28;20199;-76
2024/02/14 06:45:39;;;;;;;17.40;16.10;;;4.50;99.90;;;;;;5053696;28;20206;-76
2024/02/14 06:48:06;;;;;;;16.97;15.77;;;4.60;99.90;;;;;;5066612;28;20714;-75
2024/02/14 06:50:34;;;;;;;17.80;16.30;;;4.70;99.90;;;;;;5046497;28;20200;-76
2024/02/14 06:53:01;;;;;;;17.93;16.67;;;4.80;99.90;;;;;;5053524;28;20191;-75
2024/02/14 06:55:28;;;;;;;18.40;17.00;;;4.80;99.90;;;;;;5036206;28;20263;-76
2024/02/14 06:57:56;;;;;;;17.70;16.40;;;4.80;99.90;;;;;;5048022;28;20219;-76
2024/02/14 07:00:24;;;;;;;17.33;16.10;;;4.80;99.90;;;;;;5059317;28;20210;-75
2024/02/14 07:02:51;;;;;;;17.37;16.07;;;4.90;99.90;;;;;;5055315;28;20198;-76
2024/02/14 07:05:18;;;;;;;16.77;15.63;;;4.90;99.90;;;;;;5052876;28;20196;-76
2024/02/14 07:07:44;;;;;;;16.50;15.30;;;4.90;99.90;;;;;;5052667;28;20213;-76
2024/02/14 07:10:12;;;;;;;16.87;15.67;;;4.90;99.90;;;;;;5034727;28;20285;-76
2024/02/14 07:12:39;;;;;;;15.70;14.60;;;4.90;99.90;;;;;;5053981;28;20655;-76
2024/02/14 07:15:08;;;;;;;14.97;13.97;;;5.00;99.90;;;;;;5037881;28;20219;-76
2024/02/14 07:17:36;;;;;;;15.70;14.50;;;5.00;99.90;;;;;;5034993;28;20575;-76
2024/02/14 07:20:03;;;;;;;14.80;13.90;;;5.10;99.90;;;;;;5053775;28;20225;-79
2024/02/14 07:22:31;;;;;;;15.37;14.17;;;5.10;99.90;;;;;;5052335;28;20200;-77
2024/02/14 07:24:57;;;;;;;15.47;14.37;;;5.20;99.90;;;;;;5060879;28;20225;-78
2024/02/14 07:27:24;;;;;;;14.87;13.87;;;5.30;99.90;;;;;;5067270;28;20682;-78
2024/02/14 07:29:51;;;;;;;15.37;14.37;;;5.40;99.90;;;;;;5067398;28;20728;-79
2024/02/14 07:32:18;;;;;;;14.60;13.57;;;5.50;99.90;;;;;;5036885;28;20196;-79
2024/02/14 07:34:47;;;;;;;14.53;13.63;;;5.60;99.90;;;;;;5061447;28;20200;-78
2024/02/14 07:37:14;;;;;;;15.13;14.20;;;5.70;99.90;;;;;;5035629;28;20290;-78
2024/02/14 07:39:41;;;;;;;14.40;13.30;;;5.80;99.90;;;;;;5037311;28;20738;-78
2024/02/14 07:42:08;;;;;;;14.97;13.97;;;5.90;99.90;;;;;;5062720;28;20194;-78
2024/02/14 07:44:35;;;;;;;15.10;13.90;;;6.00;99.90;;;;;;5034709;28;20225;-79
2024/02/14 07:47:03;;;;;;;14.90;13.80;;;6.10;99.90;;;;;;5053944;28;20217;-76
2024/02/14 07:49:30;;;;;;;14.67;13.67;;;6.20;99.90;;;;;;5041001;28;20219;-77
2024/02/14 07:51:58;;;;;;;14.13;13.23;;;6.30;99.90;;;;;;5057364;28;20494;-77
2024/02/14 07:54:25;;;;;;;13.57;12.77;;;6.50;99.90;;;;;;5057126;28;20204;-77
2024/02/14 07:56:52;;;;;;;13.00;12.20;;;6.70;99.90;;;;;;5056209;28;20261;-77
2024/02/14 07:59:20;;;;;;;13.57;12.70;;;6.90;99.90;;;;;;5056400;28;20202;-77
2024/02/14 08:01:47;;;;;;;13.47;12.60;;;7.00;99.90;;;;;;5056233;28;20738;-77
2024/02/14 08:04:13;;;;;;;12.97;12.00;;;7.10;99.90;;;;;;5038242;28;20214;-76
2024/02/14 08:06:40;;;;;;;13.27;12.33;;;7.20;99.90;;;;;;5038121;28;20708;-77
2024/02/14 08:09:09;;;;;;;13.60;12.73;;;7.40;99.90;;;;;;5038233;28;20690;-77
2024/02/14 08:11:36;;;;;;;12.90;12.10;;;7.50;99.90;;;;;;5056547;28;20199;-77
2024/02/14 08:14:05;;;;;;;12.80;12.00;;;7.70;99.90;;;;;;5052441;28;20632;-76
2024/02/14 08:16:31;;;;;;;13.23;12.33;;;7.90;99.90;;;;;;5056314;28;20222;-77
2024/02/14 08:18:59;;;;;;;12.60;11.80;;;8.00;99.90;;;;;;5044465;28;20214;-77
2024/02/14 08:21:26;;;;;;;13.27;12.37;;;8.20;99.90;;;;;;5038225;28;20203;-77
2024/02/14 08:23:53;;;;;;;12.87;12.10;;;8.40;99.90;;;;;;5066585;28;20640;-76
2024/02/14 08:26:22;;;;;;;13.30;12.50;;;8.40;99.90;;;;;;5054443;28;20275;-77
2024/02/14 08:28:49;;;;;;;13.63;12.73;;;8.50;99.90;;;;;;5054788;28;20219;-79
2024/02/14 08:31:16;;;;;;;12.87;11.87;;;8.50;99.90;;;;;;5034138;28;20206;-79
2024/02/14 08:33:43;;;;;;;13.63;12.73;;;8.60;99.90;;;;;;5039885;28;20256;-79
2024/02/14 08:36:10;;;;;;;13.77;12.87;;;8.70;99.90;;;;;;5048462;28;20215;-79
2024/02/14 08:38:36;;;;;;;13.30;12.20;;;8.90;99.90;;;;;;5034831;28;20230;-79
2024/02/14 08:41:04;;;;;;;13.07;12.10;;;9.00;99.90;;;;;;5026311;28;20286;-79
2024/02/14 08:43:33;;;;;;;13.17;12.17;;;9.00;99.90;;;;;;5034037;28;20203;-79
2024/02/14 08:54:51;;;;;;;12.70;11.70;;;9.00;99.90;;;;;;4996016;28;20212;-80
2024/02/14 09:24:30;;;;;;;12.67;11.87;;;10.10;99.90;;;;;;4736418;30;20218;-78
2024/02/14 09:26:58;;;;;;;12.03;11.23;;;10.20;99.90;;;;;;4926255;23;20232;-80
2024/02/14 09:32:31;;;;;;;12.37;11.67;;;10.40;99.90;;;;;;5039449;28;20267;-79
2024/02/14 09:34:59;;;;;;;12.87;11.97;;;10.30;99.90;;;;;;5046968;28;20260;-80
2024/02/14 09:37:26;;;;;;;14.03;12.97;;;10.30;99.90;;;;;;5047115;28;20228;-78
2024/02/14 09:39:53;;;;;;;13.40;12.33;;;10.30;99.90;;;;;;5051340;28;20270;-77
2024/02/14 09:42:29;;;;;;;13.13;12.13;;;10.30;99.90;;;;;;5056515;28;20692;-78
2024/02/14 09:45:00;;;;;;;12.87;12.03;;;10.40;99.90;;;;;;5038442;28;20258;-79
2024/02/14 09:47:30;;;;;;;13.10;12.30;;;10.50;99.90;;;;;;5037878;28;20320;-78
2024/02/14 09:49:58;;;;;;;13.10;12.17;;;10.60;99.90;;;;;;5037580;28;20217;-77
2024/02/14 09:52:26;;;;;;;13.10;12.10;;;10.70;99.90;;;;;;5029387;28;20199;-78
2024/02/14 09:54:53;;;;;;;13.90;13.00;;;10.80;99.90;;;;;;5026905;28;20195;-76
2024/02/14 09:57:23;;;;;;;13.20;12.40;;;11.00;99.90;;;;;;5051218;28;20222;-77
2024/02/14 09:59:51;;;;;;;13.13;12.33;;;11.20;99.90;;;;;;5030702;28;20256;-78
2024/02/14 10:02:18;;;;;;;14.07;13.13;;;11.40;99.90;;;;;;5023255;28;20208;-77
2024/02/14 10:04:44;;;;;;;14.07;13.17;;;11.50;99.90;;;;;;5036680;28;20282;-78
2024/02/14 10:07:11;;;;;;;12.87;12.07;;;11.60;99.90;;;;;;5062421;28;20223;-79
2024/02/14 10:09:42;;;;;;;12.93;12.07;;;11.80;99.90;;;;;;5049641;28;20592;-79
2024/02/14 10:12:09;;;;;;;12.90;12.10;;;11.90;99.90;;;;;;5056035;28;20245;-79
2024/02/14 10:14:38;;;;;;;13.23;12.43;;;12.00;99.90;;;;;;5035883;28;20191;-79
2024/02/14 10:17:05;;;;;;;13.57;12.77;;;12.10;99.90;;;;;;5052426;28;20214;-79
2024/02/14 10:19:32;;;;;;;9.20;8.43;;;12.20;99.90;;;;;;5039789;28;20201;-79
2024/02/14 10:22:00;;;;;;;6.53;6.03;;;12.40;99.90;;;;;;5057764;28;20272;-79
2024/02/14 10:24:27;;;;;;;8.77;8.27;;;12.40;99.90;;;;;;5038107;28;20227;-79
2024/02/14 10:26:57;;;;;;;12.20;11.40;;;12.40;99.90;;;;;;5046226;28;20717;-79
2024/02/14 10:29:24;;;;;;;11.70;10.90;;;12.40;99.90;;;;;;5037259;28;20215;-78
2024/02/14 10:31:53;;;;;;;11.30;10.60;;;12.40;99.90;;;;;;5058572;28;20202;-79
2024/02/14 10:34:21;;;;;;;11.30;10.60;;;12.40;99.90;;;;;;5053483;28;20196;-80
2024/02/14 10:36:50;;;;;;;11.23;10.53;;;12.50;99.90;;;;;;5055375;28;20235;-78
2024/02/14 10:39:19;;;;;;;11.10;10.40;;;12.50;99.90;;;;;;5031423;28;20271;-78
2024/02/14 10:41:46;;;;;;;11.10;10.40;;;12.60;99.90;;;;;;5064933;28;20195;-78
2024/02/14 10:44:14;;;;;;;10.73;10.03;;;12.60;99.90;;;;;;5069150;28;20222;-78
2024/02/14 10:46:42;;;;;;;11.77;10.97;;;12.60;99.90;;;;;;5030522;28;20229;-76
2024/02/14 10:49:12;;;;;;;9.43;8.73;;;12.70;99.90;;;;;;5041286;28;20187;-78
2024/02/14 10:51:41;;;;;;;10.83;10.13;;;12.90;99.90;;;;;;5054531;28;20245;-77
2024/02/14 10:54:11;;;;;;;10.80;10.10;;;12.90;99.90;;;;;;5036730;28;20199;-78
2024/02/14 10:56:41;;;;;;;12.50;11.80;;;12.90;99.90;;;;;;5055064;28;20350;-78
2024/02/14 10:59:11;;;;;;;11.43;10.83;;;12.90;99.90;;;;;;5055045;28;20258;-78
2024/02/14 11:01:39;;;;;;;12.10;11.30;;;12.90;99.90;;;;;;5029896;28;20204;-78
2024/02/14 11:04:06;;;;;;;9.93;9.33;;;13.00;99.90;;;;;;5046440;28;20200;-78
2024/02/14 11:06:46;;;;;;;8.37;7.87;;;13.10;99.90;;;;;;5030066;28;20220;-78
2024/02/14 11:09:15;;;;;;;10.50;9.80;;;13.30;99.90;;;;;;5016836;28;20223;-78
2024/02/14 11:11:42;;;;;;;11.20;10.60;;;13.40;99.90;;;;;;5044747;28;20206;-78
2024/02/14 11:14:10;;;;;;;11.37;10.77;;;13.50;99.90;;;;;;5045955;28;20211;-78
2024/02/14 11:16:38;;;;;;;10.00;9.40;;;13.50;99.90;;;;;;5047267;28;20594;-78
2024/02/14 11:19:09;;;;;;;10.80;10.10;;;13.60;99.90;;;;;;5032930;28;20697;-78
2024/02/14 11:21:42;;;;;;;11.17;10.57;;;13.60;99.90;;;;;;5036697;28;20211;-78
2024/02/14 11:24:11;;;;;;;10.63;10.03;;;13.70;99.90;;;;;;5043356;28;20203;-78
2024/02/14 11:26:46;;;;;;;11.30;10.63;;;13.80;99.90;;;;;;5049132;28;20215;-78
2024/02/14 11:29:17;;;;;;;9.10;8.57;;;13.90;99.90;;;;;;5018564;28;20268;-78
2024/02/14 11:31:44;;;;;;;9.20;8.70;;;13.90;99.90;;;;;;5050416;28;20291;-79
2024/02/14 11:34:12;;;;;;;9.20;8.70;;;14.00;99.90;;;;;;5037479;28;20193;-78
2024/02/14 11:36:43;;;;;;;8.60;8.10;;;14.00;99.90;;;;;;5016731;28;20309;-77
2024/02/14 11:39:09;;;;;;;10.43;9.73;;;14.00;99.90;;;;;;5035527;28;20195;-77
2024/02/14 11:41:37;;;;;;;10.30;9.70;;;14.20;99.90;;;;;;5028767;28;20217;-77
2024/02/14 11:44:05;;;;;;;4.90;4.70;;;14.40;99.90;;;;;;5025980;28;20201;-76
2024/02/14 11:46:32;;;;;;;4.90;4.60;;;14.40;99.90;;;;;;5051641;28;20293;-77
2024/02/14 11:49:00;;;;;;;5.07;4.67;;;14.30;99.90;;;;;;5035894;28;20283;-78
2024/02/14 11:51:28;;;;;;;5.30;4.90;;;14.30;99.90;;;;;;5027175;28;20660;-77
2024/02/14 11:53:56;;;;;;;5.10;4.70;;;14.20;99.90;;;;;;5054067;28;20205;-77
2024/02/14 11:56:25;;;;;;;5.43;4.57;;;14.10;99.90;;;;;;5024525;28;20782;-77
2024/02/14 11:58:52;;;;;;;4.40;4.10;;;14.00;99.90;;;;;;5053176;28;20226;-78
2024/02/14 12:01:19;;;;;;;8.00;7.57;;;13.80;99.90;;;;;;5026431;28;20628;-78
2024/02/14 12:03:46;;;;;;;11.50;10.80;;;13.60;99.90;;;;;;5046671;28;20200;-78
2024/02/14 12:06:15;;;;;;;10.73;10.10;;;13.50;99.90;;;;;;5037375;28;20231;-77
2024/02/14 12:08:42;;;;;;;10.37;9.70;;;13.50;99.90;;;;;;5044390;28;20286;-78
2024/02/14 12:11:10;;;;;;;8.93;8.33;;;13.40;99.90;;;;;;5036193;28;20225;-78
2024/02/14 12:13:43;;;;;;;10.07;9.50;;;13.40;99.90;;;;;;5052809;28;20201;-78
2024/02/14 12:16:11;;;;;;;9.73;9.13;;;13.40;99.90;;;;;;5052767;28;20216;-78
2024/02/14 12:18:39;;;;;;;10.10;9.50;;;13.40;99.90;;;;;;5048547;28;20475;-78
2024/02/14 12:21:08;;;;;;;10.20;9.60;;;13.40;99.90;;;;;;5021404;28;20208;-77
2024/02/14 12:23:35;;;;;;;10.53;9.93;;;13.40;99.90;;;;;;5035418;28;20290;-77
2024/02/14 12:26:03;;;;;;;10.40;9.70;;;13.40;99.90;;;;;;5029582;28;20719;-78
2024/02/14 12:28:32;;;;;;;9.50;9.00;;;13.50;99.90;;;;;;5051908;28;20199;-79
2024/02/14 12:30:59;;;;;;;9.87;9.17;;;13.50;99.90;;;;;;5033064;28;20208;-79
2024/02/14 12:33:29;;;;;;;10.10;9.50;;;13.50;99.90;;;;;;5045669;28;20207;-79
2024/02/14 12:35:58;;;;;;;9.90;9.20;;;13.70;99.90;;;;;;5028908;28;20684;-78
2024/02/14 12:38:25;;;;;;;9.77;9.17;;;13.90;99.90;;;;;;5044441;28;20199;-79
2024/02/14 12:40:53;;;;;;;7.43;7.00;;;14.10;99.90;;;;;;5051845;28;20230;-78
2024/02/14 12:43:20;;;;;;;6.60;6.23;;;14.40;99.90;;;;;;5052394;28;20247;-78
2024/02/14 12:45:48;;;;;;;9.30;8.80;;;14.60;99.90;;;;;;5040006;28;20649;-79
2024/02/14 12:48:23;;;;;;;10.00;9.40;;;14.80;99.90;;;;;;5024899;28;20213;-79
2024/02/14 12:50:51;;;;;;;10.00;9.40;;;14.90;99.90;;;;;;5033809;28;20656;-79
2024/02/14 12:53:19;;;;;;;9.47;8.97;;;15.00;99.90;;;;;;5033922;28;20728;-79
2024/02/14 12:55:47;;;;;;;7.83;7.43;;;15.00;99.90;;;;;;5052651;28;20203;-79
2024/02/14 12:58:14;;;;;;;6.70;6.30;;;15.00;99.90;;;;;;5038947;28;20205;-79
2024/02/14 13:00:42;;;;;;;6.23;5.83;;;15.00;99.90;;;;;;5032041;28;20193;-80
2024/02/14 13:03:11;;;;;;;7.60;7.00;;;15.00;99.90;;;;;;5038539;28;20371;-79
2024/02/14 13:05:38;;;;;;;9.00;8.50;;;15.00;99.90;;;;;;5052452;28;20272;-79
2024/02/14 13:08:06;;;;;;;10.00;9.40;;;15.10;99.90;;;;;;5036982;28;20218;-79
2024/02/14 13:10:33;;;;;;;10.00;9.50;;;15.10;99.90;;;;;;5036114;28;20206;-80
2024/02/14 13:13:00;;;;;;;10.17;9.57;;;15.00;99.90;;;;;;5040143;28;20262;-79
2024/02/14 13:15:27;;;;;;;7.40;6.90;;;15.00;99.90;;;;;;5034976;28;20198;-79